sensor_id;sensor_type;location;lat;lon;timestamp;pressure;altitude;pressure_sealevel;temperature;humidity
58973;BME280;44750;52.040;7.472;2024-03-02T05:01:30;98623.97;;;4.60;100.00
58973;BME280;44750;52.040;7.472;2024-03-02T05:06:31;98626.16;;;4.73;100.00
58973;BME280;44750;52.040;7.472;2024-03-02T05:11:31;98622.16;;;4.93;100.00
58973;BME280;44750;52.040;7.472;2024-03-02T05:16:35;98640.56;;;5.13;100.00
58973;BME280;44750;52.040;7.472;2024-03-02T05:21:35;98645.25;;;5.27;100.00
58973;BME280;44750;52.040;7.472;2024-03-02T05:26:36;98635.50;;;5.34;100.00
58973;BME280;44750;52.040;7.472;2024-03-02T05:31:36;98638.19;;;5.43;100.00
58973;BME280;44750;52.040;7.472;2024-03-02T05:36:36;98637.00;;;5.45;100.00
58973;BME280;44750;52.040;7.472;2024-03-02T05:41:36;98618.03;;;5.47;100.00
58973;BME280;44750;52.040;7.472;2024-03-02T05:46:37;98625.59;;;5.43;100.00
58973;BME280;44750;52.040;7.472;2024-03-02T05:51:37;98622.22;;;5.49;100.00
58973;BME280;44750;52.040;7.472;2024-03-02T05:56:37;98612.81;;;5.53;100.00
58973;BME280;44750;52.040;7.472;2024-03-02T06:01:47;98593.03;;;5.55;100.00
58973;BME280;44750;52.040;7.472;2024-03-02T06:06:48;98606.06;;;5.66;100.00
58973;BME280;44750;52.040;7.472;2024-03-02T06:11:48;98611.09;;;5.61;100.00
58973;BME280;44750;52.040;7.472;2024-03-02T06:16:48;98607.59;;;5.60;100.00
58973;BME280;44750;52.040;7.472;2024-03-02T06:21:48;98600.72;;;5.58;100.00
58973;BME280;44750;52.040;7.472;2024-03-02T06:26:49;98613.78;;;5.61;100.00
58973;BME280;44750;52.040;7.472;2024-03-02T06:31:49;98598.41;;;5.55;100.00
58973;BME280;44750;52.040;7.472;2024-03-02T06:36:49;98603.78;;;5.55;100.00
58973;BME280;44750;52.040;7.472;2024-03-02T06:41:49;98603.59;;;5.56;100.00
58973;BME280;44750;52.040;7.472;2024-03-02T06:46:50;98603.78;;;5.55;100.00
58973;BME280;44750;52.040;7.472;2024-03-02T06:51:50;98601.72;;;5.57;100.00
58973;BME280;44750;52.040;7.472;2024-03-02T06:56:51;98604.25;;;5.58;100.00
58973;BME280;44750;52.040;7.472;2024-03-02T07:01:51;98627.19;;;5.69;100.00
58973;BME280;44750;52.040;7.472;2024-03-02T07:06:52;98630.38;;;5.73;100.00
58973;BME280;44750;52.040;7.472;2024-03-02T07:11:52;98645.94;;;5.85;100.00
58973;BME280;44750;52.040;7.472;2024-03-02T07:16:52;98652.28;;;5.93;100.00
58973;BME280;44750;52.040;7.472;2024-03-02T07:21:52;98659.00;;;6.05;100.00
58973;BME280;44750;52.040;7.472;2024-03-02T15:17:50;98501.31;;;13.19;100.00
58973;BME280;44750;52.040;7.472;2024-03-02T15:22:50;98504.69;;;13.40;100.00
58973;BME280;44750;52.040;7.472;2024-03-02T15:27:51;98496.00;;;13.49;100.00
58973;BME280;44750;52.040;7.472;2024-03-02T15:32:51;98469.41;;;13.51;100.00
58973;BME280;44750;52.040;7.472;2024-03-02T15:37:51;98468.28;;;13.59;100.00
58973;BME280;44750;52.040;7.472;2024-03-02T15:42:51;98455.53;;;13.60;100.00
58973;BME280;44750;52.040;7.472;2024-03-02T15:47:52;98456.22;;;13.55;100.00
58973;BME280;44750;52.040;7.472;2024-03-02T15:52:52;98455.97;;;13.57;100.00
58973;BME280;44750;52.040;7.472;2024-03-02T15:57:52;98428.38;;;13.41;100.00
58973;BME280;44750;52.040;7.472;2024-03-02T16:02:52;98426.38;;;13.30;100.00
58973;BME280;44750;52.040;7.472;2024-03-02T16:07:53;98422.47;;;13.26;100.00
58973;BME280;44750;52.040;7.472;2024-03-02T16:12:53;98400.81;;;13.19;100.00
58973;BME280;44750;52.040;7.472;2024-03-02T16:17:53;98424.50;;;13.12;100.00
58973;BME280;44750;52.040;7.472;2024-03-02T16:22:54;98413.34;;;13.01;100.00
58973;BME280;44750;52.040;7.472;2024-03-02T16:27:54;98421.31;;;12.96;100.00
58973;BME280;44750;52.040;7.472;2024-03-02T16:32:54;98404.34;;;12.82;100.00
58973;BME280;44750;52.040;7.472;2024-03-02T16:37:54;98426.66;;;12.84;100.00
58973;BME280;44750;52.040;7.472;2024-03-02T16:42:55;98437.00;;;12.76;100.00
58973;BME280;44750;52.040;7.472;2024-03-02T16:47:55;98459.59;;;12.69;100.00
58973;BME280;44750;52.040;7.472;2024-03-02T16:52:55;98469.28;;;12.59;100.00
58973;BME280;44750;52.040;7.472;2024-03-02T16:57:55;98473.53;;;12.48;100.00
58973;BME280;44750;52.040;7.472;2024-03-02T17:02:56;98484.88;;;12.38;100.00
58973;BME280;44750;52.040;7.472;2024-03-02T17:07:56;98487.84;;;12.30;100.00
58973;BME280;44750;52.040;7.472;2024-03-02T17:12:56;98491.66;;;12.22;100.00
58973;BME280;44750;52.040;7.472;2024-03-02T17:17:56;98513.00;;;12.12;100.00
58973;BME280;44750;52.040;7.472;2024-03-02T17:22:56;98533.69;;;12.06;100.00
58973;BME280;44750;52.040;7.472;2024-03-02T17:28:22;98547.25;;;11.99;100.00
58973;BME280;44750;52.040;7.472;2024-03-02T17:33:23;98580.66;;;11.93;100.00
58973;BME280;44750;52.040;7.472;2024-03-02T17:38:23;98606.53;;;11.89;100.00
58973;BME280;44750;52.040;7.472;2024-03-02T17:43:24;98610.28;;;11.88;100.00
58973;BME280;44750;52.040;7.472;2024-03-02T17:48:25;98620.09;;;11.82;100.00
58973;BME280;44750;52.040;7.472;2024-03-02T17:53:25;98632.81;;;11.75;100.00
58973;BME280;44750;52.040;7.472;2024-03-02T17:58:25;98649.50;;;11.72;100.00
58973;BME280;44750;52.040;7.472;2024-03-02T18:03:25;98655.78;;;11.66;100.00
58973;BME280;44750;52.040;7.472;2024-03-02T18:08:26;98666.00;;;11.57;100.00
58973;BME280;44750;52.040;7.472;2024-03-02T18:13:26;98683.31;;;11.56;100.00
58973;BME280;44750;52.040;7.472;2024-03-02T18:18:26;98672.91;;;11.46;100.00
58973;BME280;44750;52.040;7.472;2024-03-02T18:23:26;98688.72;;;11.49;100.00
58973;BME280;44750;52.040;7.472;2024-03-02T18:28:27;98696.66;;;11.44;100.00
58973;BME280;44750;52.040;7.472;2024-03-02T18:33:27;98696.66;;;11.44;100.00
58973;BME280;44750;52.040;7.472;2024-03-02T18:38:27;98712.91;;;11.44;100.00
58973;BME280;44750;52.040;7.472;2024-03-02T18:43:27;98704.56;;;11.39;100.00
58973;BME280;44750;52.040;7.472;2024-03-02T18:48:28;98711.66;;;11.40;100.00
58973;BME280;44750;52.040;7.472;2024-03-02T18:53:28;98694.97;;;11.36;100.00
58973;BME280;44750;52.040;7.472;2024-03-02T18:58:28;98695.19;;;11.35;100.00
58973;BME280;44750;52.040;7.472;2024-03-02T19:03:28;98687.47;;;11.32;100.00
58973;BME280;44750;52.040;7.472;2024-03-02T19:08:29;98665.16;;;11.30;100.00
58973;BME280;44750;52.040;7.472;2024-03-02T19:13:29;98663.31;;;11.30;100.00
58973;BME280;44750;52.040;7.472;2024-03-02T19:18:30;98638.50;;;11.27;100.00
58973;BME280;44750;52.040;7.472;2024-03-02T19:23:30;98637.88;;;11.25;100.00
58973;BME280;44750;52.040;7.472;2024-03-02T19:28:30;98636.63;;;11.20;100.00
58973;BME280;44750;52.040;7.472;2024-03-02T19:33:30;98633.31;;;11.12;100.00
58973;BME280;44750;52.040;7.472;2024-03-02T19:38:30;98643.72;;;11.01;100.00
58973;BME280;44750;52.040;7.472;2024-03-02T19:43:31;98668.28;;;11.00;100.00
58973;BME280;44750;52.040;7.472;2024-03-02T19:48:31;98679.31;;;10.92;100.00
58973;BME280;44750;52.040;7.472;2024-03-02T19:53:31;98684.50;;;10.86;100.00
58973;BME280;44750;52.040;7.472;2024-03-02T19:58:31;98703.25;;;10.88;100.00
58973;BME280;44750;52.040;7.472;2024-03-02T20:03:32;98689.69;;;10.81;100.00
58973;BME280;44750;52.040;7.472;2024-03-02T20:08:32;98713.63;;;10.84;100.00
58973;BME280;44750;52.040;7.472;2024-03-02T20:13:33;98705.28;;;10.79;100.00
58973;BME280;44750;52.040;7.472;2024-03-02T20:18:34;98693.63;;;10.72;100.00
58973;BME280;44750;52.040;7.472;2024-03-02T20:23:34;98698.63;;;10.75;100.00
58973;BME280;44750;52.040;7.472;2024-03-02T20:28:34;98723.63;;;10.84;100.00
58973;BME280;44750;52.040;7.472;2024-03-02T20:33:34;98690.13;;;10.78;100.00
58973;BME280;44750;52.040;7.472;2024-03-02T20:38:35;98704.69;;;10.84;100.00
58973;BME280;44750;52.040;7.472;2024-03-02T20:43:35;98696.13;;;10.80;100.00
58973;BME280;44750;52.040;7.472;2024-03-02T20:48:35;98699.88;;;10.79;100.00
58973;BME280;44750;52.040;7.472;2024-03-02T20:53:35;98704.47;;;10.79;100.00
58973;BME280;44750;52.040;7.472;2024-03-02T20:58:36;98709.88;;;10.79;100.00
58973;BME280;44750;52.040;7.472;2024-03-02T21:03:36;98705.47;;;10.71;100.00
58973;BME280;44750;52.040;7.472;2024-03-02T21:08:36;98717.34;;;10.70;100.00
58973;BME280;44750;52.040;7.472;2024-03-02T21:13:36;98709.41;;;10.62;100.00
58973;BME280;44750;52.040;7.472;2024-03-02T21:18:37;98729.38;;;10.61;100.00
58973;BME280;44750;52.040;7.472;2024-03-02T21:23:37;98729.16;;;10.56;100.00
58973;BME280;44750;52.040;7.472;2024-03-02T21:28:38;98707.44;;;10.42;100.00
58973;BME280;44750;52.040;7.472;2024-03-02T21:33:38;98762.41;;;10.49;100.00
58973;BME280;44750;52.040;7.472;2024-03-02T21:38:39;98761.78;;;10.47;100.00
58973;BME280;44750;52.040;7.472;2024-03-02T21:43:39;98772.81;;;10.46;100.00
58973;BME280;44750;52.040;7.472;2024-03-02T21:48:39;98766.13;;;10.42;100.00
58973;BME280;44750;52.040;7.472;2024-03-02T21:53:39;98762.97;;;10.38;100.00
